createdAt,value
2023-03-27T00:01:03.234Z,0.8
2023-03-27T00:02:19.721Z,1.1
2023-03-27T00:03:36.243Z,1.1
2023-03-27T00:04:52.671Z,1.3
2023-03-27T00:06:09.153Z,0.9
2023-03-27T00:07:25.636Z,0.9
2023-03-27T00:08:42.120Z,1.1
2023-03-27T00:09:58.609Z,0.8
2023-03-27T00:12:31.567Z,1
2023-03-27T00:13:48.036Z,0.9
2023-03-27T00:15:04.512Z,0.9
2023-03-27T00:16:20.999Z,0.9
2023-03-27T00:17:36.744Z,0.9
2023-03-27T00:20:09.709Z,0.9
2023-03-27T00:21:25.544Z,1.1
2023-03-27T00:23:57.765Z,0.9
2023-03-27T00:25:14.246Z,0.8
2023-03-27T00:26:30.733Z,1.1
2023-03-27T00:27:47.207Z,1
2023-03-27T00:29:03.696Z,1
2023-03-27T00:30:20.166Z,1.1
2023-03-27T00:31:36.647Z,1
2023-03-27T00:32:53.124Z,1
2023-03-27T00:34:09.649Z,0.9
2023-03-27T00:35:26.091Z,0.9
2023-03-27T00:36:41.916Z,1
2023-03-27T00:37:57.663Z,0.9
2023-03-27T00:39:14.143Z,1
2023-03-27T00:40:30.632Z,1.1
2023-03-27T00:41:47.149Z,1
2023-03-27T00:43:03.576Z,1
2023-03-27T00:44:20.056Z,0.9
2023-03-27T00:45:36.535Z,1.1
2023-03-27T00:46:53.030Z,1
2023-03-27T00:48:09.499Z,0.9
2023-03-27T00:50:42.471Z,0.8
2023-03-27T00:51:58.945Z,0.9
2023-03-27T00:53:15.425Z,0.9
2023-03-27T00:54:31.174Z,1.1
2023-03-27T00:55:47.650Z,1.1
2023-03-27T00:58:20.606Z,1
2023-03-27T00:59:36.450Z,1.2
2023-03-27T01:00:52.196Z,1
2023-03-27T01:02:08.661Z,1
2023-03-27T01:04:41.641Z,0.9
2023-03-27T01:05:58.121Z,1.1
2023-03-27T01:07:14.590Z,0.8
2023-03-27T01:08:31.067Z,0.9
2023-03-27T01:09:47.541Z,0.9
2023-03-27T01:11:04.029Z,0.9
2023-03-27T01:12:20.530Z,1.1
2023-03-27T01:13:37.008Z,0.9
2023-03-27T01:14:53.499Z,1
2023-03-27T01:16:09.972Z,1
2023-03-27T01:17:25.725Z,1
2023-03-27T01:18:42.199Z,1
2023-03-27T01:19:58.677Z,1.1
2023-03-27T01:21:15.152Z,1.3
2023-03-27T01:22:31.643Z,1.2
2023-03-27T01:23:48.116Z,0.9
2023-03-27T01:25:04.593Z,1
2023-03-27T01:26:21.081Z,0.8
2023-03-27T01:27:36.918Z,1
2023-03-27T01:28:53.397Z,0.9
2023-03-27T01:30:09.139Z,1.1
2023-03-27T01:31:25.613Z,1
2023-03-27T01:32:42.087Z,1.1
2023-03-27T01:33:58.575Z,1
2023-03-27T01:35:15.055Z,0.9
2023-03-27T01:37:48.011Z,1.1
2023-03-27T01:39:04.486Z,0.9
2023-03-27T01:40:20.986Z,1.1
2023-03-27T01:41:37.457Z,1
2023-03-27T01:42:53.943Z,1
2023-03-27T01:45:26.900Z,1.1
2023-03-27T01:46:43.370Z,0.9
2023-03-27T01:47:59.196Z,1
2023-03-27T01:49:15.689Z,1.1
2023-03-27T01:50:31.434Z,1
2023-03-27T01:51:47.918Z,1.2
2023-03-27T01:53:04.384Z,0.9
2023-03-27T01:54:20.874Z,1.1
2023-03-27T01:55:37.354Z,0.9
2023-03-27T01:56:53.841Z,1
2023-03-27T01:58:10.317Z,0.9
2023-03-27T01:59:26.823Z,1.1
2023-03-27T02:00:43.281Z,0.9
2023-03-27T02:01:59.100Z,0.9
2023-03-27T02:03:14.860Z,1.2
2023-03-27T02:04:31.325Z,0.7
2023-03-27T02:05:47.812Z,1.1
2023-03-27T02:07:04.288Z,1.2
2023-03-27T02:08:20.773Z,1.1
2023-03-27T02:09:37.246Z,0.9
2023-03-27T02:10:53.741Z,1.3
2023-03-27T02:13:26.699Z,0.9
2023-03-27T02:14:43.202Z,1
2023-03-27T02:15:59.649Z,1.3
2023-03-27T02:17:16.133Z,0.9
2023-03-27T02:18:32.603Z,1
2023-03-27T02:19:48.352Z,0.8
2023-03-27T02:21:04.832Z,1
2023-03-27T02:22:21.330Z,0.9
2023-03-27T02:23:37.802Z,0.9
2023-03-27T02:24:54.277Z,1
2023-03-27T02:26:10.766Z,1
2023-03-27T02:27:27.238Z,0.9
2023-03-27T02:28:43.714Z,1
2023-03-27T02:30:00.205Z,0.9
2023-03-27T02:31:16.677Z,0.9
2023-03-27T02:32:33.160Z,1
2023-03-27T02:33:49.670Z,1.3
2023-03-27T02:35:06.127Z,0.9
2023-03-27T02:36:22.590Z,1
2023-03-27T02:37:38.338Z,0.8
2023-03-27T02:38:54.836Z,1.1
2023-03-27T02:40:11.302Z,1.2
2023-03-27T02:41:27.104Z,1
2023-03-27T02:42:43.577Z,1
2023-03-27T02:44:00.055Z,1.1
2023-03-27T02:45:16.543Z,1
2023-03-27T02:46:33.012Z,1
2023-03-27T02:47:49.505Z,1
2023-03-27T02:49:05.978Z,1.1
2023-03-27T02:50:22.454Z,0.9
2023-03-27T02:51:38.933Z,1.1
2023-03-27T02:54:11.898Z,1.3
2023-03-27T02:55:28.371Z,0.9
2023-03-27T02:56:44.855Z,1.1
2023-03-27T02:58:00.602Z,1
2023-03-27T02:59:17.075Z,1
2023-03-27T03:01:50.055Z,1.1
2023-03-27T03:03:06.527Z,1
2023-03-27T03:04:23.012Z,1.1
2023-03-27T03:05:39.517Z,1.1
2023-03-27T03:06:55.964Z,1.3
2023-03-27T03:08:12.477Z,1.1
2023-03-27T03:09:28.918Z,1
2023-03-27T03:10:45.409Z,1.2
2023-03-27T03:12:01.892Z,1.2
2023-03-27T03:13:18.354Z,1.1
2023-03-27T03:15:50.625Z,0.9
2023-03-27T03:17:06.419Z,1.2
2023-03-27T03:18:22.912Z,1.1
2023-03-27T03:19:38.685Z,1
2023-03-27T03:20:55.129Z,1.2
2023-03-27T03:22:11.608Z,1
2023-03-27T03:24:44.604Z,1.1
2023-03-27T03:26:01.061Z,1.1
2023-03-27T03:27:17.522Z,0.9
2023-03-27T03:28:34.002Z,0.8
2023-03-27T03:29:50.488Z,1.1
2023-03-27T03:32:23.452Z,0.9
2023-03-27T03:33:39.272Z,0.8
2023-03-27T03:34:55.032Z,0.9
2023-03-27T03:36:11.518Z,1
2023-03-27T03:37:27.996Z,0.8
2023-03-27T03:38:44.473Z,0.8
2023-03-27T03:40:00.947Z,1
2023-03-27T03:41:17.430Z,1
2023-03-27T03:42:33.910Z,0.9
2023-03-27T03:43:50.388Z,1
2023-03-27T03:45:06.878Z,1.2
2023-03-27T03:46:23.384Z,0.9
2023-03-27T03:47:39.184Z,1.2
2023-03-27T03:48:54.926Z,1.1
2023-03-27T03:50:11.402Z,1.1
2023-03-27T03:51:27.890Z,1
2023-03-27T03:52:44.363Z,1.1
2023-03-27T03:54:00.884Z,1.2
2023-03-27T03:55:17.328Z,1
2023-03-27T03:56:33.803Z,1
2023-03-27T03:57:50.288Z,0.9
2023-03-27T03:59:06.758Z,1.2
2023-03-27T04:00:23.250Z,1
2023-03-27T04:02:55.570Z,1.1
2023-03-27T04:04:11.313Z,1.2
2023-03-27T04:05:27.795Z,1
2023-03-27T04:06:44.259Z,1
2023-03-27T04:08:00.752Z,1.2
2023-03-27T04:09:17.224Z,0.8
2023-03-27T04:10:33.701Z,1
2023-03-27T04:11:50.177Z,1.2
2023-03-27T04:13:06.658Z,1
2023-03-27T04:14:23.144Z,1.1
2023-03-27T04:15:38.968Z,0.9
2023-03-27T04:16:54.730Z,1.1
2023-03-27T04:19:27.694Z,1
2023-03-27T04:20:44.166Z,1
2023-03-27T04:23:17.128Z,1
2023-03-27T04:24:33.598Z,1.1
2023-03-27T04:25:50.092Z,1
2023-03-27T04:27:06.564Z,1.1
2023-03-27T04:28:23.082Z,1
2023-03-27T04:29:39.515Z,1
2023-03-27T04:30:56.005Z,1.2
2023-03-27T04:32:11.832Z,1
2023-03-27T04:33:27.594Z,0.9
2023-03-27T04:34:44.065Z,1.1
2023-03-27T04:36:00.552Z,1.1
2023-03-27T04:37:17.062Z,0.8
2023-03-27T04:38:33.000Z,1
2023-03-27T04:39:49.991Z,1
2023-03-27T04:42:22.939Z,1.1
2023-03-27T04:43:39.415Z,0.9
2023-03-27T04:44:55.913Z,1.1
2023-03-27T04:46:12.421Z,1.2
2023-03-27T04:47:28.872Z,1.2
2023-03-27T04:48:45.335Z,1.2
2023-03-27T04:50:01.102Z,1
2023-03-27T04:51:17.570Z,1
2023-03-27T04:52:34.051Z,1.1
2023-03-27T04:53:50.530Z,0.9
2023-03-27T04:55:07.051Z,1
2023-03-27T04:56:23.500Z,0.9
2023-03-27T04:57:39.970Z,1.1
2023-03-27T04:58:56.450Z,1.1
2023-03-27T05:00:12.936Z,1.1
2023-03-27T05:01:28.772Z,0.9
2023-03-27T05:02:44.507Z,1.1
2023-03-27T05:04:01.030Z,0.9
2023-03-27T05:05:17.474Z,0.9
2023-03-27T05:06:33.942Z,1
2023-03-27T05:07:50.431Z,1.1
2023-03-27T05:09:06.950Z,1.1
2023-03-27T05:10:23.393Z,1.3
2023-03-27T05:11:39.868Z,1
2023-03-27T05:12:56.352Z,0.9
2023-03-27T05:14:12.838Z,1
2023-03-27T05:15:29.303Z,0.8
2023-03-27T05:16:45.797Z,1.1
2023-03-27T05:18:02.270Z,1.1
2023-03-27T05:19:18.027Z,1.1
2023-03-27T05:20:34.502Z,0.9
2023-03-27T05:21:50.968Z,0.9
2023-03-27T05:23:07.451Z,1.2
2023-03-27T05:24:23.941Z,0.9
2023-03-27T05:25:40.416Z,0.9
2023-03-27T05:28:13.385Z,0.9
2023-03-27T05:30:46.328Z,1
2023-03-27T05:32:02.821Z,1.2
2023-03-27T05:33:19.294Z,0.8
2023-03-27T05:34:35.774Z,1.3
2023-03-27T05:35:52.253Z,1.2
2023-03-27T05:37:08.012Z,1.1
2023-03-27T05:39:40.974Z,1.2
2023-03-27T05:40:56.837Z,1
2023-03-27T05:42:12.544Z,0.8
2023-03-27T05:43:29.034Z,0.8
2023-03-27T05:44:45.502Z,1
2023-03-27T05:46:01.977Z,1.1
2023-03-27T05:47:18.467Z,1
2023-03-27T05:48:34.950Z,1
2023-03-27T05:49:51.465Z,1.2
2023-03-27T05:51:07.904Z,0.9
2023-03-27T05:52:24.380Z,1
2023-03-27T05:53:40.860Z,1.1
2023-03-27T05:54:56.689Z,1.4
2023-03-27T05:56:12.445Z,2.3
2023-03-27T05:57:28.919Z,4.6
2023-03-27T05:58:45.401Z,6
2023-03-27T06:00:01.924Z,4.9
2023-03-27T06:01:18.355Z,4.2
2023-03-27T06:02:34.846Z,5.8
2023-03-27T06:03:51.314Z,4.2
2023-03-27T06:05:07.804Z,3.2
2023-03-27T06:06:24.273Z,2.9
2023-03-27T06:07:40.764Z,2.2
2023-03-27T06:08:57.237Z,1.9
2023-03-27T06:10:13.714Z,1.8
2023-03-27T06:11:30.202Z,1.4
2023-03-27T06:14:02.427Z,1.9
2023-03-27T06:15:18.904Z,1.8
2023-03-27T06:16:35.400Z,1.6
2023-03-27T06:17:51.863Z,1.9
2023-03-27T06:19:08.351Z,2.1
2023-03-27T06:20:24.872Z,1.8
2023-03-27T06:21:41.304Z,1.6
2023-03-27T06:22:57.788Z,1.7
2023-03-27T06:24:14.278Z,1.5
2023-03-27T06:25:30.741Z,1.4
2023-03-27T06:26:47.219Z,1.8
2023-03-27T06:28:03.701Z,1.2
2023-03-27T06:29:19.463Z,1.7
2023-03-27T06:30:35.946Z,1.6
2023-03-27T06:31:52.412Z,1.6
2023-03-27T06:33:08.903Z,1.3
2023-03-27T06:34:25.380Z,1.6
2023-03-27T06:35:41.848Z,1.5
2023-03-27T06:36:58.330Z,1.6
2023-03-27T06:38:14.815Z,1.6
2023-03-27T06:40:47.772Z,1.4
2023-03-27T06:42:04.261Z,1.7
2023-03-27T06:44:37.222Z,1.5
2023-03-27T06:45:52.956Z,1.6
2023-03-27T06:47:09.446Z,1.4
2023-03-27T06:48:25.915Z,1.3
2023-03-27T06:49:42.397Z,1.6
2023-03-27T06:50:58.888Z,1.8
2023-03-27T06:52:15.361Z,1.8
2023-03-27T06:53:31.836Z,1.9
2023-03-27T06:54:48.317Z,2.3
2023-03-27T06:56:04.804Z,1.8
2023-03-27T06:58:37.075Z,1.8
2023-03-27T06:59:52.868Z,1.4
2023-03-27T07:04:58.776Z,1.5
2023-03-27T07:06:14.657Z,1.7
2023-03-27T07:08:46.838Z,1.5
2023-03-27T07:10:03.321Z,2
2023-03-27T07:12:36.288Z,1.7
2023-03-27T07:13:52.754Z,1.9
2023-03-27T07:15:09.242Z,1.4
2023-03-27T07:17:42.207Z,1.7
2023-03-27T07:21:31.647Z,1.9
2023-03-27T07:22:48.112Z,1.6
2023-03-27T07:24:03.878Z,1.7
2023-03-27T07:26:36.838Z,1.6
2023-03-27T07:27:52.663Z,1.9
2023-03-27T07:30:24.884Z,1.5
2023-03-27T07:31:41.366Z,1.4
2023-03-27T07:32:57.848Z,1.5
2023-03-27T07:35:30.818Z,1.6
2023-03-27T07:36:47.279Z,1.6
2023-03-27T07:38:03.762Z,1.6
2023-03-27T07:40:36.738Z,1.6
2023-03-27T07:41:53.216Z,2.1
2023-03-27T07:44:26.172Z,1.8
2023-03-27T07:45:41.961Z,2.1
2023-03-27T07:46:58.389Z,3.7
2023-03-27T07:49:31.351Z,2.2
2023-03-27T07:52:04.307Z,2.1
2023-03-27T07:53:20.804Z,1.7
2023-03-27T07:54:37.265Z,1.8
2023-03-27T07:57:10.243Z,2.2
2023-03-27T07:58:26.718Z,2
2023-03-27T07:59:43.192Z,2.3
2023-03-27T08:00:59.674Z,2.2
2023-03-27T08:03:31.899Z,2.3
2023-03-27T08:04:48.383Z,2.1
2023-03-27T08:06:04.870Z,2.2
2023-03-27T08:08:37.818Z,2.2
2023-03-27T08:09:54.308Z,2
2023-03-27T08:11:10.792Z,2.3
2023-03-27T08:13:43.752Z,2
2023-03-27T08:16:16.708Z,2.4
2023-03-27T08:17:33.188Z,1.8
2023-03-27T08:18:49.662Z,2.2
2023-03-27T08:21:21.900Z,2.2
2023-03-27T08:23:54.897Z,2.5
2023-03-27T08:26:27.809Z,2.2
2023-03-27T08:27:44.285Z,2.5
2023-03-27T08:30:17.241Z,2.5
2023-03-27T08:31:33.738Z,2.4
2023-03-27T08:32:50.205Z,1.8
2023-03-27T08:35:23.176Z,2
2023-03-27T08:39:11.877Z,2.1
2023-03-27T08:40:28.349Z,2
2023-03-27T08:41:44.846Z,2
2023-03-27T08:44:17.800Z,1.7
2023-03-27T08:45:34.270Z,1.9
2023-03-27T08:46:50.750Z,2.1
2023-03-27T08:48:07.241Z,2.1
2023-03-27T08:50:40.187Z,3.5
2023-03-27T08:51:56.681Z,4.6
2023-03-27T08:54:29.633Z,2.3
2023-03-27T08:55:46.127Z,3.1
2023-03-27T08:58:18.352Z,4.3
2023-03-27T08:59:34.831Z,3.8
2023-03-27T09:02:07.775Z,3.5
2023-03-27T09:03:24.266Z,4
2023-03-27T09:04:40.740Z,4.4
2023-03-27T09:07:13.705Z,4.6
2023-03-27T09:08:30.186Z,3.9
2023-03-27T09:09:46.674Z,5
2023-03-27T09:13:36.112Z,4
2023-03-27T09:14:51.851Z,4.5
2023-03-27T09:16:08.327Z,4.6
2023-03-27T09:17:24.811Z,4.6
2023-03-27T09:18:41.300Z,4.4
2023-03-27T09:21:14.255Z,4.6
2023-03-27T09:22:30.727Z,6.3
2023-03-27T09:25:03.682Z,4.2
2023-03-27T09:26:20.176Z,4.1
2023-03-27T09:27:36.648Z,4.7
2023-03-27T09:30:09.623Z,5.5
2023-03-27T09:31:26.085Z,6.5
2023-03-27T09:32:42.564Z,4.2
2023-03-27T09:33:58.314Z,4.6
2023-03-27T09:35:14.797Z,4.2
2023-03-27T09:36:31.287Z,4.7
2023-03-27T09:37:47.764Z,5.4
2023-03-27T09:39:04.250Z,4.1
2023-03-27T09:40:20.716Z,4.5
2023-03-27T09:44:10.170Z,3.8
2023-03-27T09:45:26.641Z,4.4
2023-03-27T09:47:59.595Z,5.1
2023-03-27T09:49:16.069Z,4.7
2023-03-27T09:51:49.037Z,4.5
2023-03-27T09:53:04.793Z,3.8
2023-03-27T09:54:21.272Z,3.1
2023-03-27T09:56:54.222Z,2.3
2023-03-27T09:58:10.713Z,2.6
2023-03-27T09:59:27.183Z,2.8
2023-03-27T10:00:43.673Z,2.8
2023-03-27T10:02:00.142Z,2.9
2023-03-27T10:04:33.111Z,3.1
2023-03-27T10:05:49.592Z,3
2023-03-27T10:07:06.073Z,2.8
2023-03-27T10:08:22.551Z,3
2023-03-27T10:09:38.289Z,2.5
2023-03-27T10:10:54.780Z,2.5
2023-03-27T10:12:11.268Z,2.4
2023-03-27T10:13:27.733Z,2.8
2023-03-27T10:14:44.209Z,2.3
2023-03-27T10:16:00.703Z,2.2
2023-03-27T10:17:17.167Z,2.3
2023-03-27T10:18:33.708Z,2.5
2023-03-27T10:19:50.138Z,2.4
2023-03-27T10:21:06.615Z,2.1
2023-03-27T10:22:23.089Z,2.2
2023-03-27T10:24:55.397Z,2.7
2023-03-27T10:26:11.164Z,2.3
2023-03-27T10:27:27.626Z,2.4
2023-03-27T10:28:44.124Z,2.1
2023-03-27T10:30:00.595Z,2.1
2023-03-27T10:31:16.433Z,1.9
2023-03-27T10:33:48.651Z,2.1
2023-03-27T10:35:05.139Z,2.2
2023-03-27T10:36:21.618Z,2.1
2023-03-27T10:37:38.094Z,2.1
2023-03-27T10:38:54.583Z,2
2023-03-27T10:40:11.054Z,1.9
2023-03-27T10:41:27.544Z,2.4
2023-03-27T10:42:44.009Z,2.1
2023-03-27T10:44:00.492Z,2
2023-03-27T10:45:16.980Z,2.4
2023-03-27T10:47:49.292Z,2.3
2023-03-27T10:49:05.045Z,1.9
2023-03-27T10:50:21.517Z,2.3
2023-03-27T10:51:37.991Z,2.4
2023-03-27T10:52:54.482Z,2.5
2023-03-27T10:54:10.963Z,2.5
2023-03-27T10:55:27.433Z,2.8
2023-03-27T10:56:43.920Z,2.7
2023-03-27T10:58:00.386Z,2.3
2023-03-27T10:59:16.881Z,2.5
2023-03-27T11:00:33.345Z,2.5
2023-03-27T11:01:49.829Z,2.5
2023-03-27T11:03:06.320Z,2.5
2023-03-27T11:05:39.292Z,2.7
2023-03-27T11:06:55.048Z,2.7
2023-03-27T11:08:11.528Z,2.6
2023-03-27T11:09:28.018Z,2.9
2023-03-27T11:10:44.481Z,2.8
2023-03-27T11:12:00.959Z,2.8
2023-03-27T11:13:17.443Z,2.4
2023-03-27T11:14:33.284Z,2.8
2023-03-27T11:15:49.062Z,3
2023-03-27T11:17:05.551Z,3.2
2023-03-27T11:18:22.021Z,2.8
2023-03-27T11:19:38.503Z,2.8
2023-03-27T11:20:54.981Z,2.5
2023-03-27T11:22:11.478Z,2.7
2023-03-27T11:23:27.940Z,3.2
2023-03-27T11:24:44.420Z,3.2
2023-03-27T11:26:00.897Z,3.2
2023-03-27T11:27:17.381Z,3.1
2023-03-27T11:28:33.876Z,3
2023-03-27T11:29:50.338Z,3.2
2023-03-27T11:32:23.305Z,3.2
2023-03-27T11:33:39.780Z,4.2
2023-03-27T11:34:56.258Z,5.1
2023-03-27T11:36:12.008Z,4.8
2023-03-27T11:37:28.493Z,5.3
2023-03-27T11:38:44.974Z,4.7
2023-03-27T11:40:01.451Z,4.3
2023-03-27T11:41:17.941Z,4.8
2023-03-27T11:42:34.420Z,4.5
2023-03-27T11:43:50.887Z,4.3
2023-03-27T11:45:07.373Z,5
2023-03-27T11:47:40.334Z,4.2
2023-03-27T11:48:56.813Z,4.8
2023-03-27T11:51:29.773Z,4.1
2023-03-27T11:52:46.257Z,4.2
2023-03-27T11:55:18.568Z,3.6
2023-03-27T11:56:34.395Z,4.2
2023-03-27T11:57:50.135Z,4.5
2023-03-27T11:59:06.616Z,4.2
2023-03-27T12:00:23.095Z,4.1
2023-03-27T12:01:39.614Z,3.8
2023-03-27T12:02:56.061Z,4.1
2023-03-27T12:05:29.019Z,3.5
2023-03-27T12:06:45.513Z,4
2023-03-27T12:08:01.981Z,3.6
2023-03-27T12:09:18.454Z,3.2
2023-03-27T12:10:34.948Z,4.2
2023-03-27T12:11:51.421Z,3.7
2023-03-27T12:13:07.904Z,3.2
2023-03-27T12:15:40.861Z,3
2023-03-27T12:16:57.335Z,2.9
2023-03-27T12:19:29.654Z,3.1
2023-03-27T12:22:02.623Z,2.3
2023-03-27T12:24:34.955Z,2.6
2023-03-27T12:25:50.750Z,2.3
2023-03-27T12:28:22.987Z,2.6
2023-03-27T12:33:28.898Z,2.4
2023-03-27T12:36:01.857Z,2.3
2023-03-27T12:38:34.831Z,1.8
2023-03-27T12:42:24.253Z,2.4
2023-03-27T12:43:40.017Z,2
2023-03-27T12:47:29.444Z,2.3
2023-03-27T12:53:51.853Z,1.7
2023-03-27T12:57:41.293Z,2.1
2023-03-27T13:01:30.724Z,2.5
2023-03-27T13:02:46.485Z,2
2023-03-27T13:04:02.966Z,2
2023-03-27T13:06:35.914Z,2
2023-03-27T13:07:52.390Z,1.9
2023-03-27T13:09:08.873Z,1.6
2023-03-27T13:11:41.841Z,2.1
2023-03-27T13:14:14.805Z,2
2023-03-27T13:15:31.270Z,2
2023-03-27T13:16:47.760Z,1.9
2023-03-27T13:19:20.722Z,2.6
2023-03-27T13:20:36.459Z,1.9
2023-03-27T13:21:52.957Z,1.7
2023-03-27T13:24:25.914Z,2.1
2023-03-27T13:25:42.392Z,2
2023-03-27T13:28:15.355Z,1.7
2023-03-27T13:29:31.818Z,1.7
2023-03-27T13:30:48.303Z,1.8
2023-03-27T13:34:37.751Z,1.8
2023-03-27T13:37:10.709Z,1.6
2023-03-27T13:38:26.448Z,2
2023-03-27T13:39:42.927Z,1.9
2023-03-27T13:42:15.902Z,1.5
2023-03-27T13:43:32.369Z,1.5
2023-03-27T13:44:48.860Z,1.6
2023-03-27T13:48:38.290Z,1.7
2023-03-27T13:52:27.725Z,1.4
2023-03-27T13:53:44.224Z,1.6
2023-03-27T13:54:59.957Z,1.7
2023-03-27T13:57:32.922Z,1.7
2023-03-27T13:58:49.411Z,1.2
2023-03-27T14:00:05.917Z,1.4
2023-03-27T14:02:38.847Z,1.7
2023-03-27T14:03:55.324Z,1.7
2023-03-27T14:06:28.276Z,1.9
2023-03-27T14:07:44.759Z,1.3
2023-03-27T14:09:01.251Z,1.9
2023-03-27T14:11:34.207Z,1.5
2023-03-27T14:12:50.688Z,1.7
2023-03-27T14:15:22.921Z,1.3
2023-03-27T14:16:39.386Z,1.3
2023-03-27T14:20:28.830Z,1.4
2023-03-27T14:21:45.310Z,1.4
2023-03-27T14:23:01.801Z,1.6
2023-03-27T14:25:34.754Z,1.3
2023-03-27T14:26:51.226Z,1.4
2023-03-27T14:29:24.196Z,1.5
2023-03-27T14:30:39.944Z,1.5
2023-03-27T14:31:56.411Z,1.3
2023-03-27T14:34:29.371Z,1.6
2023-03-27T14:35:45.862Z,1.6
2023-03-27T14:38:18.825Z,1.4
2023-03-27T14:39:35.291Z,1.4
2023-03-27T14:43:24.744Z,1.6
2023-03-27T14:44:41.210Z,1.5
2023-03-27T14:45:57.700Z,1.4
2023-03-27T14:48:29.917Z,1.7
2023-03-27T14:49:46.403Z,1.5
2023-03-27T14:52:19.366Z,1.3
2023-03-27T14:54:52.326Z,1.2
2023-03-27T14:57:25.285Z,1.2
2023-03-27T14:58:41.762Z,1.4
2023-03-27T15:01:14.718Z,1.5
2023-03-27T15:02:31.206Z,1.5
2023-03-27T15:03:46.949Z,1.4
2023-03-27T15:05:03.475Z,1.3
2023-03-27T15:06:19.920Z,1.2
2023-03-27T15:07:36.400Z,1.1
2023-03-27T15:08:52.873Z,1.5
2023-03-27T15:11:25.845Z,1.2
2023-03-27T15:12:42.315Z,1.2
2023-03-27T15:15:15.282Z,1.5
2023-03-27T15:16:31.747Z,1.5
2023-03-27T15:17:48.230Z,1.1
2023-03-27T15:20:21.191Z,1.1
2023-03-27T15:21:36.954Z,1.3
2023-03-27T15:24:09.944Z,1.4
2023-03-27T15:25:26.377Z,1.3
2023-03-27T15:26:42.863Z,1.3
2023-03-27T15:29:15.827Z,1.1
2023-03-27T15:30:32.310Z,1.3
2023-03-27T15:34:21.054Z,1.2
2023-03-27T15:35:37.530Z,1.2
2023-03-27T15:38:09.797Z,1.2
2023-03-27T15:39:25.000Z,1.2
2023-03-27T15:43:15.029Z,1.2
2023-03-27T15:44:31.511Z,1.2
2023-03-27T15:47:04.482Z,1.2
2023-03-27T15:48:20.946Z,1.3
2023-03-27T15:49:37.428Z,1.1
2023-03-27T15:52:10.387Z,1.1
2023-03-27T15:53:26.875Z,0.9
2023-03-27T15:55:59.837Z,1.1
2023-03-27T15:57:15.584Z,1
2023-03-27T15:58:32.057Z,1.2
2023-03-27T15:59:48.585Z,1
2023-03-27T16:01:05.018Z,1.3
2023-03-27T16:02:21.500Z,1
2023-03-27T16:03:37.982Z,0.9
2023-03-27T16:06:10.953Z,1.3
2023-03-27T16:07:27.415Z,1.1
2023-03-27T16:10:00.378Z,1.1
2023-03-27T16:12:33.346Z,1
2023-03-27T16:15:05.570Z,1.1
2023-03-27T16:16:22.053Z,1.1
2023-03-27T16:18:55.025Z,1.1
2023-03-27T16:20:11.485Z,1.2
2023-03-27T16:21:27.962Z,1.2
2023-03-27T16:24:00.924Z,1.1
2023-03-27T16:26:33.893Z,1
2023-03-27T16:29:06.853Z,1.1
2023-03-27T16:32:55.568Z,1
2023-03-27T16:34:12.084Z,1.2
2023-03-27T16:35:28.523Z,0.9
2023-03-27T16:38:01.491Z,1
2023-03-27T16:39:17.961Z,1.1
2023-03-27T16:40:34.484Z,1.1
2023-03-27T16:41:50.912Z,1
2023-03-27T16:43:07.402Z,1.2
2023-03-27T16:44:23.883Z,1
2023-03-27T16:46:56.849Z,1.1
2023-03-27T16:50:45.560Z,1
2023-03-27T16:52:02.028Z,1.1
2023-03-27T16:53:18.505Z,1.3
2023-03-27T16:57:07.947Z,1.2
2023-03-27T16:58:24.433Z,1
2023-03-27T17:00:57.380Z,1.1
2023-03-27T17:02:13.865Z,1.1
2023-03-27T17:04:46.824Z,1.1
2023-03-27T17:06:02.580Z,1.4
2023-03-27T17:07:19.051Z,1.1
2023-03-27T17:09:52.024Z,1.3
2023-03-27T17:11:08.490Z,1
2023-03-27T17:12:24.972Z,1
2023-03-27T17:14:57.933Z,1
2023-03-27T17:16:14.412Z,0.9
2023-03-27T17:18:47.376Z,1
2023-03-27T17:20:03.868Z,1.1
2023-03-27T17:21:20.341Z,1.1
2023-03-27T17:25:09.046Z,1.2
2023-03-27T17:26:25.570Z,0.9
2023-03-27T17:27:42.004Z,1
2023-03-27T17:28:58.490Z,1.2
2023-03-27T17:31:31.442Z,1.2
2023-03-27T17:32:47.936Z,1
2023-03-27T17:35:20.886Z,1.1
2023-03-27T17:36:37.370Z,1
2023-03-27T17:37:53.839Z,1.1
2023-03-27T17:41:42.547Z,1.1
2023-03-27T17:42:59.044Z,1
2023-03-27T17:46:48.472Z,1
2023-03-27T17:48:04.950Z,1
2023-03-27T17:50:37.958Z,1.1
2023-03-27T17:51:54.393Z,0.9
2023-03-27T17:55:43.834Z,0.8
2023-03-27T17:56:59.580Z,1
2023-03-27T17:58:16.069Z,1.2
2023-03-27T17:59:32.542Z,0.9
2023-03-27T18:00:49.020Z,1.2
2023-03-27T18:02:05.492Z,1
2023-03-27T18:04:38.455Z,0.9
2023-03-27T18:07:11.420Z,0.9
2023-03-27T18:09:44.379Z,0.9
2023-03-27T18:11:00.855Z,0.9
2023-03-27T18:13:33.813Z,1.1
2023-03-27T18:14:50.304Z,1.3
2023-03-27T18:16:06.788Z,0.9
2023-03-27T18:18:39.006Z,1
2023-03-27T18:21:11.970Z,0.9
2023-03-27T18:22:28.494Z,1.2
2023-03-27T18:23:44.918Z,1
2023-03-27T18:25:01.404Z,1
2023-03-27T18:27:34.374Z,1
2023-03-27T18:28:50.840Z,1
2023-03-27T18:32:40.281Z,0.9
2023-03-27T18:36:29.004Z,1
2023-03-27T18:37:45.477Z,1
2023-03-27T18:39:01.955Z,1.1
2023-03-27T18:41:34.923Z,1
2023-03-27T18:42:51.402Z,0.9
2023-03-27T18:46:40.831Z,0.9
2023-03-27T18:47:57.306Z,0.9
2023-03-27T18:50:30.274Z,1.2
2023-03-27T18:51:46.025Z,0.8
2023-03-27T18:53:02.509Z,1.1
2023-03-27T18:55:35.476Z,1
2023-03-27T18:56:51.951Z,1.1
2023-03-27T18:59:24.905Z,1
2023-03-27T19:00:41.387Z,0.9
2023-03-27T19:01:57.871Z,0.9
2023-03-27T19:03:14.393Z,1.1
2023-03-27T19:04:30.831Z,1.1
2023-03-27T19:05:47.311Z,1
2023-03-27T19:07:03.793Z,1
2023-03-27T19:09:36.021Z,1.1
2023-03-27T19:10:52.491Z,1.2
2023-03-27T19:12:08.964Z,1
2023-03-27T19:13:25.460Z,1
2023-03-27T19:14:41.936Z,1.1
2023-03-27T19:17:14.894Z,1
2023-03-27T19:18:31.378Z,1
2023-03-27T19:21:04.324Z,1.1
2023-03-27T19:22:20.804Z,1.1
2023-03-27T19:23:37.283Z,1.2
2023-03-27T19:26:10.261Z,1
2023-03-27T19:27:26.001Z,1
2023-03-27T19:28:42.498Z,1.1
2023-03-27T19:31:15.456Z,0.9
2023-03-27T19:32:31.921Z,1.2
2023-03-27T19:33:48.407Z,0.9
2023-03-27T19:35:04.895Z,0.9
2023-03-27T19:37:37.856Z,1
2023-03-27T19:41:27.289Z,1.2
2023-03-27T19:44:00.257Z,1
2023-03-27T19:45:15.988Z,0.8
2023-03-27T19:46:32.469Z,1
2023-03-27T19:49:05.433Z,1.1
2023-03-27T19:50:21.911Z,0.9
2023-03-27T19:52:54.883Z,1.2
2023-03-27T19:54:11.356Z,1.2
2023-03-27T19:55:27.151Z,1
2023-03-27T19:59:16.575Z,1
2023-03-27T20:00:33.073Z,1.1
2023-03-27T20:01:49.542Z,1
2023-03-27T20:03:06.066Z,1.1
2023-03-27T20:06:55.473Z,1
2023-03-27T20:12:01.381Z,1.1
2023-03-27T20:13:17.135Z,1
2023-03-27T20:17:06.570Z,1
2023-03-27T20:20:56.013Z,1
2023-03-27T20:23:28.974Z,1.2
2023-03-27T20:26:01.928Z,0.9
2023-03-27T20:27:18.420Z,0.9
2023-03-27T20:31:07.844Z,1.1
2023-03-27T20:32:23.606Z,1
2023-03-27T20:33:40.085Z,1.2
2023-03-27T20:36:13.047Z,0.9
2023-03-27T20:41:18.953Z,1
2023-03-27T20:43:51.919Z,1
2023-03-27T20:45:08.400Z,1.1
2023-03-27T20:48:57.842Z,1.2
2023-03-27T20:54:03.023Z,0.9
2023-03-27T20:57:52.455Z,1
2023-03-27T21:01:41.950Z,1
2023-03-27T21:02:58.386Z,0.9
2023-03-27T21:06:47.823Z,0.9
2023-03-27T21:09:20.062Z,1.2
2023-03-27T21:13:09.490Z,1.1
2023-03-27T21:16:58.941Z,1.1
2023-03-27T21:18:15.416Z,1.1
2023-03-27T21:19:31.897Z,1.2
2023-03-27T21:24:37.812Z,0.9
2023-03-27T21:29:43.009Z,0.9
2023-03-27T21:34:48.920Z,1
2023-03-27T21:37:21.880Z,1
2023-03-27T21:38:38.407Z,1.1
2023-03-27T21:39:54.833Z,1
2023-03-27T21:41:11.323Z,1
2023-03-27T21:47:33.036Z,1
2023-03-27T21:48:49.461Z,0.9
2023-03-27T21:50:05.937Z,0.9
2023-03-27T21:52:38.915Z,1
2023-03-27T21:57:44.822Z,1.2
2023-03-27T21:59:00.579Z,1
2023-03-27T22:00:17.065Z,0.9
2023-03-27T22:01:33.530Z,1.2
2023-03-27T22:06:39.450Z,1
2023-03-27T22:15:34.817Z,1
2023-03-27T22:18:07.093Z,1
2023-03-27T22:20:40.002Z,1
2023-03-27T22:24:29.494Z,1
2023-03-27T22:25:45.927Z,0.9
2023-03-27T22:29:35.356Z,1
2023-03-27T22:34:41.285Z,1.1
2023-03-27T22:43:35.905Z,0.9
2023-03-27T22:49:58.308Z,0.9
2023-03-27T22:51:14.793Z,1.2
2023-03-27T22:52:30.532Z,1
2023-03-27T22:56:19.987Z,1
2023-03-27T22:57:36.460Z,1
2023-03-27T23:01:25.891Z,1.1
2023-03-27T23:03:58.863Z,0.9
2023-03-27T23:06:31.815Z,1
2023-03-27T23:10:21.264Z,0.8
2023-03-27T23:15:26.446Z,1
2023-03-27T23:17:59.402Z,0.9
2023-03-27T23:20:32.366Z,1.1
2023-03-27T23:23:05.337Z,0.9
2023-03-27T23:29:27.732Z,1
2023-03-27T23:33:16.428Z,0.9
2023-03-27T23:34:32.910Z,0.9
2023-03-27T23:38:22.351Z,1
2023-03-27T23:42:11.848Z,0.9
2023-03-27T23:43:28.277Z,0.9
2023-03-27T23:47:17.706Z,0.9
2023-03-27T23:56:12.396Z,1
